createdAt,value
2023-03-29T00:04:24.429Z,56.23
2023-03-29T00:08:53.873Z,56.27
2023-03-29T00:13:23.135Z,56.75
2023-03-29T00:34:51.760Z,56.41
2023-03-29T00:39:23.142Z,56.57
2023-03-29T00:43:28.704Z,56.53
2023-03-29T00:47:58.839Z,56.66
2023-03-29T00:56:38.466Z,56.46
2023-03-29T01:01:11.936Z,56.71
2023-03-29T01:05:40.741Z,56.61
2023-03-29T01:10:10.672Z,56.58
2023-03-29T01:33:02.872Z,57.25
2023-03-29T01:37:37.710Z,57.04
2023-03-29T01:42:06.688Z,57.09
2023-03-29T01:46:43.345Z,57.37
2023-03-29T02:08:28.115Z,57.88
2023-03-29T02:12:57.546Z,58.02
2023-03-29T02:17:26.501Z,57.86
2023-03-29T02:21:55.715Z,58.27
2023-03-29T02:43:42.446Z,58.23
2023-03-29T02:48:20.215Z,58.65
2023-03-29T02:52:51.712Z,58.49
2023-03-29T02:57:09.501Z,58.52
2023-03-29T03:01:27.839Z,59.03
2023-03-29T03:05:56.995Z,59.12
2023-03-29T03:31:58.921Z,59.87
2023-03-29T03:36:05.190Z,59.81
2023-03-29T03:40:35.866Z,59.96
2023-03-29T04:02:47.322Z,60.71
2023-03-29T04:07:22.268Z,60.97
2023-03-29T04:16:05.309Z,61.02
2023-03-29T04:20:37.881Z,61.24
2023-03-29T04:25:08.319Z,61.22
2023-03-29T04:59:12.603Z,61.63
2023-03-29T05:03:40.259Z,61.67
2023-03-29T05:08:09.641Z,61.92
2023-03-29T05:12:38.837Z,61.92
2023-03-29T05:16:49.111Z,61.69
2023-03-29T06:25:08.425Z,62.54
2023-03-29T06:29:24.077Z,62.47
2023-03-29T06:33:54.150Z,62.44
2023-03-29T06:59:54.135Z,62.24
2023-03-29T07:04:17.951Z,61.91
2023-03-29T07:08:35.825Z,61.89
2023-03-29T07:12:19.324Z,61.70
2023-03-29T07:16:10.401Z,61.80
2023-03-29T07:42:18.499Z,61.27
2023-03-29T07:46:48.848Z,60.65
2023-03-29T07:50:52.191Z,60.19
2023-03-29T08:06:32.208Z,60.01
2023-03-29T08:10:53.119Z,60.00
2023-03-29T08:15:24.522Z,59.77
2023-03-29T08:19:53.428Z,59.36
2023-03-29T08:24:04.895Z,59.63
2023-03-29T08:28:17.346Z,59.23
2023-03-29T08:32:39.318Z,58.94
2023-03-29T08:36:54.135Z,59.10
2023-03-29T09:03:00.519Z,57.30
2023-03-29T09:07:22.217Z,56.94
2023-03-29T09:11:52.926Z,56.75
2023-03-29T09:16:23.258Z,56.47
2023-03-29T09:20:42.176Z,56.32
2023-03-29T09:24:59.726Z,56.14
2023-03-29T09:29:45.664Z,55.97
2023-03-29T09:34:19.965Z,55.75
2023-03-29T09:38:45.700Z,55.77
2023-03-29T10:09:05.201Z,54.68
2023-03-29T10:13:24.375Z,54.40
2023-03-29T10:17:39.702Z,54.34
2023-03-29T10:21:43.321Z,54.05
2023-03-29T10:26:07.001Z,53.92
2023-03-29T10:30:14.045Z,53.70
2023-03-29T10:34:31.098Z,53.43
2023-03-29T10:38:29.461Z,53.21
2023-03-29T10:42:32.591Z,53.00
2023-03-29T11:32:36.165Z,51.01
2023-03-29T11:39:46.450Z,50.36
2023-03-29T11:46:19.220Z,50.26
2023-03-29T11:50:43.955Z,49.88
2023-03-29T11:54:53.056Z,49.95
2023-03-29T11:58:39.025Z,49.66
2023-03-29T12:02:34.377Z,49.91
2023-03-29T12:06:41.054Z,49.81
2023-03-29T12:09:51.327Z,49.78
2023-03-29T12:13:20.150Z,49.54
2023-03-29T12:17:01.320Z,49.57
2023-03-29T12:20:39.920Z,49.69
2023-03-29T12:24:34.625Z,49.53
2023-03-29T12:27:53.584Z,49.64
2023-03-29T12:32:20.914Z,49.80
2023-03-29T12:35:48.959Z,49.47
2023-03-29T12:40:06.469Z,49.26
2023-03-29T12:43:51.052Z,49.32
2023-03-29T12:47:51.295Z,49.03
2023-03-29T12:50:35.033Z,48.90
2023-03-29T12:53:34.582Z,48.51
2023-03-29T12:57:58.962Z,48.17
2023-03-29T13:01:48.621Z,47.85
2023-03-29T13:05:29.804Z,47.81
2023-03-29T13:08:51.373Z,47.59
2023-03-29T13:12:34.734Z,47.50
2023-03-29T13:16:29.074Z,47.71
2023-03-29T13:20:19.598Z,47.64
2023-03-29T13:24:39.331Z,47.79
2023-03-29T13:29:17.351Z,47.85
2023-03-29T13:33:53.440Z,47.96
2023-03-29T13:38:18.615Z,47.97
2023-03-29T13:41:46.669Z,48.24
2023-03-29T13:45:10.693Z,48.10
2023-03-29T13:49:24.360Z,48.15
2023-03-29T13:52:48.576Z,48.23
2023-03-29T13:55:37.618Z,48.23
2023-03-29T13:59:13.921Z,48.17
2023-03-29T14:02:03.490Z,48.29
2023-03-29T14:04:44.405Z,48.41
2023-03-29T14:08:14.501Z,48.34
2023-03-29T14:11:58.733Z,48.47
2023-03-29T14:16:04.777Z,48.34
2023-03-29T14:19:39.870Z,48.36
2023-03-29T14:22:44.489Z,48.51
2023-03-29T14:25:17.393Z,48.76
2023-03-29T14:28:40.199Z,48.56
2023-03-29T14:31:59.849Z,48.67
2023-03-29T14:34:29.454Z,48.80
2023-03-29T14:37:24.843Z,48.74
2023-03-29T14:39:59.467Z,48.83
2023-03-29T14:43:08.403Z,49.04
2023-03-29T14:45:43.955Z,48.62
2023-03-29T14:48:33.434Z,48.63
2023-03-29T14:51:14.730Z,48.77
2023-03-29T14:53:51.820Z,48.76
2023-03-29T14:56:26.312Z,48.78
2023-03-29T14:59:42.257Z,48.58
2023-03-29T15:02:41.354Z,48.69
2023-03-29T15:05:38.818Z,48.76
2023-03-29T15:08:29.487Z,48.86
2023-03-29T15:11:38.496Z,48.85
2023-03-29T15:14:19.888Z,48.76
2023-03-29T15:17:52.120Z,48.86
2023-03-29T15:20:57.880Z,49.45
2023-03-29T15:23:39.710Z,49.10
2023-03-29T15:26:17.523Z,49.37
2023-03-29T15:29:03.932Z,49.69
2023-03-29T15:32:03.432Z,49.51
2023-03-29T15:34:39.798Z,49.56
2023-03-29T15:37:31.482Z,50.07
2023-03-29T15:40:31.611Z,49.93
2023-03-29T15:43:20.014Z,50.14
2023-03-29T15:45:56.305Z,50.40
2023-03-29T15:48:38.350Z,50.30
2023-03-29T15:51:28.111Z,50.63
2023-03-29T15:53:57.368Z,50.76
2023-03-29T15:56:31.411Z,50.94
2023-03-29T16:00:02.225Z,51.03
2023-03-29T16:03:48.669Z,51.25
2023-03-29T16:06:50.163Z,51.52
2023-03-29T16:09:25.945Z,51.66
2023-03-29T16:12:24.820Z,51.65
2023-03-29T16:15:12.231Z,52.03
2023-03-29T16:18:11.672Z,52.18
2023-03-29T16:21:13.971Z,52.22
2023-03-29T16:23:52.496Z,52.39
2023-03-29T16:26:40.994Z,52.62
2023-03-29T16:29:28.122Z,52.71
2023-03-29T16:31:56.605Z,52.73
2023-03-29T16:34:28.836Z,52.87
2023-03-29T16:37:13.593Z,52.91
2023-03-29T16:39:48.584Z,53.18
2023-03-29T16:42:36.239Z,53.21
2023-03-29T16:45:36.964Z,53.56
2023-03-29T16:49:16.264Z,53.48
2023-03-29T16:52:05.288Z,53.75
2023-03-29T16:54:49.234Z,53.77
2023-03-29T16:58:21.679Z,53.76
2023-03-29T17:02:22.103Z,54.02
2023-03-29T17:06:13.859Z,54.19
2023-03-29T17:10:11.138Z,54.27
2023-03-29T17:13:07.070Z,54.35
2023-03-29T17:16:08.364Z,54.44
2023-03-29T17:18:47.563Z,54.66
2023-03-29T17:21:39.564Z,54.65
2023-03-29T17:24:11.478Z,54.67
2023-03-29T17:26:54.213Z,54.77
2023-03-29T17:30:20.391Z,54.75
2023-03-29T17:33:34.901Z,55.03
2023-03-29T17:36:30.463Z,55.06
2023-03-29T17:39:10.374Z,55.10
2023-03-29T17:42:04.538Z,55.19
2023-03-29T17:45:07.191Z,55.25
2023-03-29T17:48:24.439Z,55.41
2023-03-29T17:51:56.489Z,55.54
2023-03-29T17:55:14.586Z,55.57
2023-03-29T17:58:52.990Z,55.76
2023-03-29T18:01:46.977Z,55.84
2023-03-29T18:05:08.688Z,55.88
2023-03-29T18:08:36.238Z,55.97
2023-03-29T18:11:23.060Z,56.09
2023-03-29T18:14:16.808Z,56.15
2023-03-29T18:17:53.587Z,56.17
2023-03-29T18:21:01.636Z,56.37
2023-03-29T18:23:38.982Z,56.30
2023-03-29T18:26:17.288Z,56.44
2023-03-29T18:29:38.512Z,56.54
2023-03-29T18:33:06.580Z,56.55
2023-03-29T18:35:58.421Z,56.80
2023-03-29T18:38:50.365Z,56.70
2023-03-29T18:41:43.549Z,56.84
2023-03-29T18:44:40.510Z,56.96
2023-03-29T18:48:48.366Z,56.93
2023-03-29T18:52:40.122Z,57.17
2023-03-29T18:56:01.544Z,57.12
2023-03-29T19:00:01.613Z,57.25
2023-03-29T19:03:44.351Z,57.24
2023-03-29T19:07:04.938Z,57.38
2023-03-29T19:10:32.904Z,57.42
2023-03-29T19:14:16.648Z,57.63
2023-03-29T19:17:27.596Z,57.65
2023-03-29T19:21:07.327Z,57.81
2023-03-29T19:24:48.728Z,57.80
2023-03-29T19:28:05.915Z,57.94
2023-03-29T19:30:45.570Z,58.06
2023-03-29T19:33:43.724Z,58.23
2023-03-29T19:36:30.521Z,58.09
2023-03-29T19:39:36.856Z,58.22
2023-03-29T19:43:18.368Z,58.22
2023-03-29T19:46:23.092Z,58.45
2023-03-29T19:49:48.807Z,58.50
2023-03-29T19:52:41.387Z,58.58
2023-03-29T19:55:56.857Z,58.63
2023-03-29T19:59:39.588Z,58.57
2023-03-29T20:03:19.594Z,58.71
2023-03-29T20:06:29.802Z,58.70
2023-03-29T20:09:26.005Z,58.84
2023-03-29T20:13:27.766Z,58.89
2023-03-29T20:17:45.276Z,59.01
2023-03-29T20:21:02.368Z,59.02
2023-03-29T20:24:24.603Z,58.98
2023-03-29T20:27:47.335Z,59.07
2023-03-29T20:30:56.305Z,59.03
2023-03-29T20:34:46.118Z,59.13
2023-03-29T20:39:14.921Z,59.15
2023-03-29T20:42:49.520Z,59.18
2023-03-29T20:46:31.085Z,59.15
2023-03-29T20:50:38.240Z,59.22
2023-03-29T20:54:40.450Z,59.41
2023-03-29T20:58:37.354Z,59.40
2023-03-29T21:01:38.221Z,59.47
2023-03-29T21:05:15.617Z,59.33
2023-03-29T21:08:20.553Z,59.32
2023-03-29T21:12:48.140Z,59.56
2023-03-29T21:16:05.897Z,59.63
2023-03-29T21:19:16.820Z,59.49
2023-03-29T21:23:03.620Z,59.51
2023-03-29T21:26:55.750Z,59.68
2023-03-29T21:30:32.255Z,59.76
2023-03-29T21:34:16.746Z,59.85
2023-03-29T21:38:25.817Z,59.84
2023-03-29T21:42:43.163Z,59.80
2023-03-29T21:46:36.516Z,59.93
2023-03-29T21:50:39.701Z,60.11
2023-03-29T21:54:39.993Z,59.99
2023-03-29T21:59:00.479Z,59.85
2023-03-29T22:01:54.114Z,60.02
2023-03-29T22:05:42.281Z,60.01
2023-03-29T22:10:02.365Z,60.16
2023-03-29T22:18:35.691Z,60.39
2023-03-29T22:21:59.631Z,60.34
2023-03-29T22:25:25.571Z,60.47
2023-03-29T22:29:17.096Z,60.52
2023-03-29T22:32:45.062Z,60.61
2023-03-29T22:36:37.597Z,60.69
2023-03-29T22:39:45.203Z,60.63
2023-03-29T22:42:29.049Z,60.71
2023-03-29T22:45:07.597Z,60.66
2023-03-29T22:48:00.205Z,60.88
2023-03-29T22:50:49.362Z,60.93
2023-03-29T22:53:50.829Z,60.83
2023-03-29T22:56:54.918Z,60.96
2023-03-29T23:00:07.322Z,60.96
2023-03-29T23:03:26.810Z,61.06
2023-03-29T23:07:28.532Z,61.20
2023-03-29T23:10:28.897Z,61.28
2023-03-29T23:13:15.287Z,61.37
2023-03-29T23:16:20.944Z,61.29
2023-03-29T23:20:04.561Z,61.31
2023-03-29T23:22:36.926Z,61.29
2023-03-29T23:25:10.913Z,61.48
2023-03-29T23:28:36.780Z,61.26
2023-03-29T23:31:40.349Z,61.36
2023-03-29T23:34:48.494Z,61.58
2023-03-29T23:38:19.431Z,61.57
2023-03-29T23:41:19.550Z,61.59
2023-03-29T23:44:56.109Z,61.67
2023-03-29T23:48:29.997Z,61.61
2023-03-29T23:51:39.407Z,61.69
2023-03-29T23:55:00.134Z,61.78
2023-03-29T23:58:41.889Z,61.78
